sensor_id;sensor_type;location;lat;lon;timestamp;P1;durP1;ratioP1;P2;durP2;ratioP2
60492;SDS011;46341;51.290;-2.474;2023-04-09T00:01:27;9.57;;;8.57;;
60492;SDS011;46341;51.290;-2.474;2023-04-09T00:03:53;10.10;;;8.50;;
60492;SDS011;46341;51.290;-2.474;2023-04-09T00:06:20;10.02;;;9.02;;
60492;SDS011;46341;51.290;-2.474;2023-04-09T00:08:46;10.27;;;9.20;;
60492;SDS011;46341;51.290;-2.474;2023-04-09T00:11:12;11.38;;;10.07;;
60492;SDS011;46341;51.290;-2.474;2023-04-09T00:13:39;11.65;;;10.05;;
60492;SDS011;46341;51.290;-2.474;2023-04-09T00:16:06;11.13;;;9.75;;
60492;SDS011;46341;51.290;-2.474;2023-04-09T00:18:32;12.43;;;11.07;;
60492;SDS011;46341;51.290;-2.474;2023-04-09T00:20:58;11.82;;;10.45;;
60492;SDS011;46341;51.290;-2.474;2023-04-09T00:23:25;12.38;;;10.43;;
60492;SDS011;46341;51.290;-2.474;2023-04-09T00:25:52;10.48;;;9.48;;
60492;SDS011;46341;51.290;-2.474;2023-04-09T00:28:18;12.05;;;9.90;;
60492;SDS011;46341;51.290;-2.474;2023-04-09T00:30:45;12.45;;;9.93;;
60492;SDS011;46341;51.290;-2.474;2023-04-09T00:33:11;11.98;;;9.32;;
60492;SDS011;46341;51.290;-2.474;2023-04-09T00:35:37;10.95;;;9.88;;
60492;SDS011;46341;51.290;-2.474;2023-04-09T00:38:04;10.75;;;9.65;;
60492;SDS011;46341;51.290;-2.474;2023-04-09T00:40:30;12.82;;;10.38;;
60492;SDS011;46341;51.290;-2.474;2023-04-09T00:42:57;11.10;;;9.70;;
60492;SDS011;46341;51.290;-2.474;2023-04-09T00:45:23;10.35;;;9.20;;
60492;SDS011;46341;51.290;-2.474;2023-04-09T00:47:49;9.88;;;8.70;;
60492;SDS011;46341;51.290;-2.474;2023-04-09T00:50:16;12.43;;;9.00;;
60492;SDS011;46341;51.290;-2.474;2023-04-09T00:52:43;9.88;;;8.95;;
60492;SDS011;46341;51.290;-2.474;2023-04-09T00:55:09;12.38;;;9.82;;
60492;SDS011;46341;51.290;-2.474;2023-04-09T00:57:36;10.57;;;9.48;;
60492;SDS011;46341;51.290;-2.474;2023-04-09T01:00:02;13.43;;;10.82;;
60492;SDS011;46341;51.290;-2.474;2023-04-09T01:02:29;11.63;;;10.25;;
60492;SDS011;46341;51.290;-2.474;2023-04-09T01:04:56;13.73;;;10.82;;
60492;SDS011;46341;51.290;-2.474;2023-04-09T01:12:50;12.27;;;10.80;;
60492;SDS011;46341;51.290;-2.474;2023-04-09T01:15:30;14.63;;;12.27;;
60492;SDS011;46341;51.290;-2.474;2023-04-09T01:18:01;12.90;;;11.00;;
60492;SDS011;46341;51.290;-2.474;2023-04-09T01:23:00;12.15;;;10.95;;
60492;SDS011;46341;51.290;-2.474;2023-04-09T01:28:16;11.18;;;10.00;;
60492;SDS011;46341;51.290;-2.474;2023-04-09T01:30:44;12.25;;;10.23;;
60492;SDS011;46341;51.290;-2.474;2023-04-09T01:33:13;10.60;;;9.50;;
60492;SDS011;46341;51.290;-2.474;2023-04-09T01:35:42;12.30;;;10.53;;
60492;SDS011;46341;51.290;-2.474;2023-04-09T01:38:10;12.88;;;10.80;;
60492;SDS011;46341;51.290;-2.474;2023-04-09T01:40:37;16.65;;;13.98;;
60492;SDS011;46341;51.290;-2.474;2023-04-09T01:43:04;16.58;;;13.80;;
60492;SDS011;46341;51.290;-2.474;2023-04-09T01:45:31;15.55;;;13.95;;
60492;SDS011;46341;51.290;-2.474;2023-04-09T01:47:58;19.25;;;15.20;;
60492;SDS011;46341;51.290;-2.474;2023-04-09T01:50:24;18.67;;;15.27;;
60492;SDS011;46341;51.290;-2.474;2023-04-09T01:52:51;16.02;;;13.68;;
60492;SDS011;46341;51.290;-2.474;2023-04-09T01:55:17;13.90;;;12.02;;
60492;SDS011;46341;51.290;-2.474;2023-04-09T01:57:44;16.10;;;13.20;;
60492;SDS011;46341;51.290;-2.474;2023-04-09T02:00:10;14.77;;;13.27;;
60492;SDS011;46341;51.290;-2.474;2023-04-09T02:05:48;16.95;;;13.65;;
60492;SDS011;46341;51.290;-2.474;2023-04-09T02:08:18;15.93;;;13.85;;
60492;SDS011;46341;51.290;-2.474;2023-04-09T02:10:47;16.15;;;13.93;;
60492;SDS011;46341;51.290;-2.474;2023-04-09T02:13:18;16.67;;;14.82;;
60492;SDS011;46341;51.290;-2.474;2023-04-09T02:15:45;17.63;;;15.50;;
60492;SDS011;46341;51.290;-2.474;2023-04-09T02:18:25;17.93;;;15.73;;
60492;SDS011;46341;51.290;-2.474;2023-04-09T02:20:55;20.60;;;16.45;;
60492;SDS011;46341;51.290;-2.474;2023-04-09T02:23:22;18.70;;;16.70;;
60492;SDS011;46341;51.290;-2.474;2023-04-09T02:25:49;20.15;;;16.50;;
60492;SDS011;46341;51.290;-2.474;2023-04-09T02:28:16;17.73;;;15.03;;
60492;SDS011;46341;51.290;-2.474;2023-04-09T02:30:42;15.65;;;13.98;;
60492;SDS011;46341;51.290;-2.474;2023-04-09T02:33:08;17.25;;;15.35;;
60492;SDS011;46341;51.290;-2.474;2023-04-09T02:35:35;18.23;;;14.80;;
60492;SDS011;46341;51.290;-2.474;2023-04-09T02:38:02;19.00;;;16.27;;
60492;SDS011;46341;51.290;-2.474;2023-04-09T02:40:28;19.48;;;16.35;;
60492;SDS011;46341;51.290;-2.474;2023-04-09T02:42:54;19.20;;;16.70;;
60492;SDS011;46341;51.290;-2.474;2023-04-09T02:45:21;20.02;;;16.27;;
60492;SDS011;46341;51.290;-2.474;2023-04-09T02:47:47;19.90;;;16.88;;
60492;SDS011;46341;51.290;-2.474;2023-04-09T02:50:14;19.42;;;15.77;;
60492;SDS011;46341;51.290;-2.474;2023-04-09T02:52:40;17.77;;;15.90;;
60492;SDS011;46341;51.290;-2.474;2023-04-09T02:55:06;18.13;;;15.70;;
60492;SDS011;46341;51.290;-2.474;2023-04-09T02:57:33;20.23;;;16.38;;
60492;SDS011;46341;51.290;-2.474;2023-04-09T02:59:59;20.13;;;16.00;;
60492;SDS011;46341;51.290;-2.474;2023-04-09T03:02:26;17.60;;;15.80;;
60492;SDS011;46341;51.290;-2.474;2023-04-09T03:04:52;20.77;;;16.10;;
60492;SDS011;46341;51.290;-2.474;2023-04-09T03:07:19;19.00;;;16.30;;
60492;SDS011;46341;51.290;-2.474;2023-04-09T03:09:45;17.60;;;15.35;;
60492;SDS011;46341;51.290;-2.474;2023-04-09T03:12:11;18.83;;;16.33;;
60492;SDS011;46341;51.290;-2.474;2023-04-09T03:14:38;18.48;;;16.33;;
60492;SDS011;46341;51.290;-2.474;2023-04-09T03:17:04;18.73;;;16.25;;
60492;SDS011;46341;51.290;-2.474;2023-04-09T03:19:30;19.35;;;15.88;;
60492;SDS011;46341;51.290;-2.474;2023-04-09T03:21:57;20.65;;;17.15;;
60492;SDS011;46341;51.290;-2.474;2023-04-09T03:24:23;18.60;;;15.73;;
60492;SDS011;46341;51.290;-2.474;2023-04-09T03:26:49;18.20;;;15.43;;
60492;SDS011;46341;51.290;-2.474;2023-04-09T03:29:16;20.40;;;16.80;;
60492;SDS011;46341;51.290;-2.474;2023-04-09T03:31:42;17.65;;;15.05;;
60492;SDS011;46341;51.290;-2.474;2023-04-09T03:34:09;17.42;;;15.60;;
60492;SDS011;46341;51.290;-2.474;2023-04-09T03:36:35;20.25;;;16.70;;
60492;SDS011;46341;51.290;-2.474;2023-04-09T03:39:02;19.40;;;17.33;;
60492;SDS011;46341;51.290;-2.474;2023-04-09T03:41:28;19.90;;;16.65;;
60492;SDS011;46341;51.290;-2.474;2023-04-09T03:43:55;19.73;;;16.20;;
60492;SDS011;46341;51.290;-2.474;2023-04-09T03:46:21;19.60;;;16.50;;
60492;SDS011;46341;51.290;-2.474;2023-04-09T03:48:48;19.00;;;15.98;;
60492;SDS011;46341;51.290;-2.474;2023-04-09T03:51:14;21.40;;;16.88;;
60492;SDS011;46341;51.290;-2.474;2023-04-09T03:53:41;22.20;;;17.98;;
60492;SDS011;46341;51.290;-2.474;2023-04-09T03:56:07;19.90;;;16.73;;
60492;SDS011;46341;51.290;-2.474;2023-04-09T03:58:34;21.17;;;16.88;;
60492;SDS011;46341;51.290;-2.474;2023-04-09T04:01:01;22.05;;;16.52;;
60492;SDS011;46341;51.290;-2.474;2023-04-09T04:03:27;20.70;;;16.67;;
60492;SDS011;46341;51.290;-2.474;2023-04-09T04:05:59;20.43;;;17.50;;
60492;SDS011;46341;51.290;-2.474;2023-04-09T04:08:25;21.60;;;17.58;;
60492;SDS011;46341;51.290;-2.474;2023-04-09T04:10:52;18.75;;;16.60;;
60492;SDS011;46341;51.290;-2.474;2023-04-09T04:13:18;21.42;;;17.27;;
60492;SDS011;46341;51.290;-2.474;2023-04-09T04:15:44;19.67;;;17.45;;
60492;SDS011;46341;51.290;-2.474;2023-04-09T04:18:11;22.92;;;18.15;;
60492;SDS011;46341;51.290;-2.474;2023-04-09T04:20:37;22.92;;;18.15;;
60492;SDS011;46341;51.290;-2.474;2023-04-09T04:23:04;20.90;;;17.48;;
60492;SDS011;46341;51.290;-2.474;2023-04-09T04:25:30;18.95;;;16.15;;
60492;SDS011;46341;51.290;-2.474;2023-04-09T04:27:56;19.80;;;16.50;;
60492;SDS011;46341;51.290;-2.474;2023-04-09T04:30:23;21.75;;;17.10;;
60492;SDS011;46341;51.290;-2.474;2023-04-09T04:32:49;20.67;;;16.80;;
60492;SDS011;46341;51.290;-2.474;2023-04-09T04:35:16;23.73;;;16.85;;
60492;SDS011;46341;51.290;-2.474;2023-04-09T04:37:42;20.75;;;17.05;;
60492;SDS011;46341;51.290;-2.474;2023-04-09T04:40:08;19.20;;;16.05;;
60492;SDS011;46341;51.290;-2.474;2023-04-09T04:42:35;20.80;;;17.13;;
60492;SDS011;46341;51.290;-2.474;2023-04-09T04:45:01;19.80;;;16.52;;
60492;SDS011;46341;51.290;-2.474;2023-04-09T04:47:28;19.58;;;16.60;;
60492;SDS011;46341;51.290;-2.474;2023-04-09T04:49:54;18.77;;;15.65;;
60492;SDS011;46341;51.290;-2.474;2023-04-09T04:52:21;19.00;;;15.77;;
60492;SDS011;46341;51.290;-2.474;2023-04-09T04:54:47;21.35;;;16.83;;
60492;SDS011;46341;51.290;-2.474;2023-04-09T04:57:13;21.23;;;16.95;;
60492;SDS011;46341;51.290;-2.474;2023-04-09T04:59:40;21.33;;;17.45;;
60492;SDS011;46341;51.290;-2.474;2023-04-09T05:02:07;20.45;;;16.52;;
60492;SDS011;46341;51.290;-2.474;2023-04-09T05:04:33;20.70;;;17.13;;
60492;SDS011;46341;51.290;-2.474;2023-04-09T05:06:59;23.73;;;18.25;;
60492;SDS011;46341;51.290;-2.474;2023-04-09T05:09:26;21.45;;;16.85;;
60492;SDS011;46341;51.290;-2.474;2023-04-09T05:11:52;22.33;;;17.73;;
60492;SDS011;46341;51.290;-2.474;2023-04-09T05:14:19;21.38;;;17.40;;
60492;SDS011;46341;51.290;-2.474;2023-04-09T05:16:46;22.73;;;17.40;;
60492;SDS011;46341;51.290;-2.474;2023-04-09T05:19:13;24.23;;;17.00;;
60492;SDS011;46341;51.290;-2.474;2023-04-09T05:21:39;23.02;;;18.00;;
60492;SDS011;46341;51.290;-2.474;2023-04-09T05:24:06;22.73;;;17.73;;
60492;SDS011;46341;51.290;-2.474;2023-04-09T05:26:32;24.48;;;18.35;;
60492;SDS011;46341;51.290;-2.474;2023-04-09T05:28:59;24.98;;;18.00;;
60492;SDS011;46341;51.290;-2.474;2023-04-09T05:31:25;24.13;;;19.00;;
60492;SDS011;46341;51.290;-2.474;2023-04-09T05:33:51;27.40;;;19.77;;
60492;SDS011;46341;51.290;-2.474;2023-04-09T05:36:18;24.40;;;18.08;;
60492;SDS011;46341;51.290;-2.474;2023-04-09T05:38:45;24.45;;;18.63;;
60492;SDS011;46341;51.290;-2.474;2023-04-09T05:41:11;21.80;;;17.70;;
60492;SDS011;46341;51.290;-2.474;2023-04-09T05:43:38;24.15;;;19.48;;
60492;SDS011;46341;51.290;-2.474;2023-04-09T05:46:04;24.02;;;18.40;;
60492;SDS011;46341;51.290;-2.474;2023-04-09T05:48:33;24.08;;;17.90;;
60492;SDS011;46341;51.290;-2.474;2023-04-09T05:50:59;22.50;;;18.00;;
60492;SDS011;46341;51.290;-2.474;2023-04-09T05:53:26;23.80;;;18.50;;
60492;SDS011;46341;51.290;-2.474;2023-04-09T05:55:52;22.95;;;17.48;;
60492;SDS011;46341;51.290;-2.474;2023-04-09T05:58:19;21.30;;;16.25;;
60492;SDS011;46341;51.290;-2.474;2023-04-09T06:00:45;23.38;;;17.40;;
60492;SDS011;46341;51.290;-2.474;2023-04-09T06:03:12;22.20;;;18.20;;
60492;SDS011;46341;51.290;-2.474;2023-04-09T06:05:38;24.05;;;18.30;;
60492;SDS011;46341;51.290;-2.474;2023-04-09T06:08:05;23.58;;;17.30;;
60492;SDS011;46341;51.290;-2.474;2023-04-09T06:10:31;21.40;;;17.08;;
60492;SDS011;46341;51.290;-2.474;2023-04-09T06:12:58;23.65;;;16.35;;
60492;SDS011;46341;51.290;-2.474;2023-04-09T06:15:24;20.00;;;16.05;;
60492;SDS011;46341;51.290;-2.474;2023-04-09T06:17:50;23.25;;;17.75;;
60492;SDS011;46341;51.290;-2.474;2023-04-09T06:20:17;23.40;;;17.08;;
60492;SDS011;46341;51.290;-2.474;2023-04-09T06:22:43;21.23;;;16.58;;
60492;SDS011;46341;51.290;-2.474;2023-04-09T06:25:09;20.13;;;16.85;;
60492;SDS011;46341;51.290;-2.474;2023-04-09T06:27:36;24.30;;;17.45;;
60492;SDS011;46341;51.290;-2.474;2023-04-09T06:30:02;23.80;;;18.35;;
60492;SDS011;46341;51.290;-2.474;2023-04-09T06:32:29;23.38;;;18.08;;
60492;SDS011;46341;51.290;-2.474;2023-04-09T06:35:00;25.42;;;18.13;;
60492;SDS011;46341;51.290;-2.474;2023-04-09T06:37:27;24.02;;;17.95;;
60492;SDS011;46341;51.290;-2.474;2023-04-09T06:39:53;25.27;;;19.52;;
60492;SDS011;46341;51.290;-2.474;2023-04-09T06:42:26;29.50;;;19.30;;
60492;SDS011;46341;51.290;-2.474;2023-04-09T06:44:53;25.90;;;20.50;;
60492;SDS011;46341;51.290;-2.474;2023-04-09T06:47:19;27.70;;;21.45;;
60492;SDS011;46341;51.290;-2.474;2023-04-09T06:49:45;30.23;;;21.35;;
60492;SDS011;46341;51.290;-2.474;2023-04-09T06:52:12;32.95;;;22.38;;
60492;SDS011;46341;51.290;-2.474;2023-04-09T06:54:38;35.85;;;24.70;;
60492;SDS011;46341;51.290;-2.474;2023-04-09T06:57:05;34.03;;;24.42;;
60492;SDS011;46341;51.290;-2.474;2023-04-09T06:59:32;38.05;;;25.77;;
60492;SDS011;46341;51.290;-2.474;2023-04-09T07:01:59;39.85;;;25.77;;
60492;SDS011;46341;51.290;-2.474;2023-04-09T07:04:26;40.95;;;26.52;;
60492;SDS011;46341;51.290;-2.474;2023-04-09T07:06:52;40.63;;;27.27;;
60492;SDS011;46341;51.290;-2.474;2023-04-09T07:09:19;39.00;;;26.45;;
60492;SDS011;46341;51.290;-2.474;2023-04-09T07:11:46;40.17;;;26.42;;
60492;SDS011;46341;51.290;-2.474;2023-04-09T07:14:12;39.13;;;27.63;;
60492;SDS011;46341;51.290;-2.474;2023-04-09T07:16:39;38.47;;;27.25;;
60492;SDS011;46341;51.290;-2.474;2023-04-09T07:19:05;39.13;;;25.83;;
60492;SDS011;46341;51.290;-2.474;2023-04-09T07:21:32;42.03;;;27.88;;
60492;SDS011;46341;51.290;-2.474;2023-04-09T07:23:59;40.72;;;27.58;;
60492;SDS011;46341;51.290;-2.474;2023-04-09T07:26:25;35.15;;;26.55;;
60492;SDS011;46341;51.290;-2.474;2023-04-09T07:28:52;39.97;;;28.50;;
60492;SDS011;46341;51.290;-2.474;2023-04-09T07:31:18;43.83;;;28.23;;
60492;SDS011;46341;51.290;-2.474;2023-04-09T07:33:44;40.47;;;27.83;;
60492;SDS011;46341;51.290;-2.474;2023-04-09T07:36:11;36.45;;;26.02;;
60492;SDS011;46341;51.290;-2.474;2023-04-09T07:38:37;38.92;;;27.30;;
60492;SDS011;46341;51.290;-2.474;2023-04-09T07:41:04;37.53;;;26.48;;
60492;SDS011;46341;51.290;-2.474;2023-04-09T07:43:30;38.30;;;26.95;;
60492;SDS011;46341;51.290;-2.474;2023-04-09T07:45:57;36.00;;;25.60;;
60492;SDS011;46341;51.290;-2.474;2023-04-09T07:48:23;39.85;;;26.30;;
60492;SDS011;46341;51.290;-2.474;2023-04-09T07:50:50;38.80;;;26.70;;
60492;SDS011;46341;51.290;-2.474;2023-04-09T07:53:16;39.03;;;26.88;;
60492;SDS011;46341;51.290;-2.474;2023-04-09T07:55:43;35.42;;;25.33;;
60492;SDS011;46341;51.290;-2.474;2023-04-09T07:58:09;37.53;;;25.88;;
60492;SDS011;46341;51.290;-2.474;2023-04-09T08:00:35;34.10;;;25.45;;
60492;SDS011;46341;51.290;-2.474;2023-04-09T08:03:02;31.98;;;24.92;;
60492;SDS011;46341;51.290;-2.474;2023-04-09T08:05:32;33.47;;;24.45;;
60492;SDS011;46341;51.290;-2.474;2023-04-09T08:07:58;29.95;;;22.45;;
60492;SDS011;46341;51.290;-2.474;2023-04-09T08:10:24;26.60;;;22.23;;
60492;SDS011;46341;51.290;-2.474;2023-04-09T08:12:51;28.23;;;21.70;;
60492;SDS011;46341;51.290;-2.474;2023-04-09T08:15:17;26.38;;;21.88;;
60492;SDS011;46341;51.290;-2.474;2023-04-09T08:17:44;28.35;;;22.25;;
60492;SDS011;46341;51.290;-2.474;2023-04-09T08:20:10;28.95;;;21.65;;
60492;SDS011;46341;51.290;-2.474;2023-04-09T08:22:37;27.77;;;21.73;;
60492;SDS011;46341;51.290;-2.474;2023-04-09T08:25:06;30.10;;;22.20;;
60492;SDS011;46341;51.290;-2.474;2023-04-09T08:27:32;27.95;;;21.88;;
60492;SDS011;46341;51.290;-2.474;2023-04-09T08:29:59;32.10;;;22.73;;
60492;SDS011;46341;51.290;-2.474;2023-04-09T08:34:53;27.38;;;20.85;;
60492;SDS011;46341;51.290;-2.474;2023-04-09T08:37:20;26.65;;;20.80;;
60492;SDS011;46341;51.290;-2.474;2023-04-09T08:39:46;27.08;;;21.00;;
60492;SDS011;46341;51.290;-2.474;2023-04-09T08:42:12;25.48;;;20.67;;
60492;SDS011;46341;51.290;-2.474;2023-04-09T08:44:39;26.77;;;21.07;;
60492;SDS011;46341;51.290;-2.474;2023-04-09T08:47:07;24.33;;;19.55;;
60492;SDS011;46341;51.290;-2.474;2023-04-09T08:49:35;26.30;;;20.10;;
60492;SDS011;46341;51.290;-2.474;2023-04-09T08:52:01;25.55;;;19.45;;
60492;SDS011;46341;51.290;-2.474;2023-04-09T08:54:28;23.98;;;19.30;;
60492;SDS011;46341;51.290;-2.474;2023-04-09T08:56:54;23.95;;;18.40;;
60492;SDS011;46341;51.290;-2.474;2023-04-09T08:59:21;24.25;;;19.65;;
60492;SDS011;46341;51.290;-2.474;2023-04-09T09:01:47;26.70;;;19.20;;
60492;SDS011;46341;51.290;-2.474;2023-04-09T09:04:19;22.73;;;18.50;;
60492;SDS011;46341;51.290;-2.474;2023-04-09T09:06:46;23.70;;;18.48;;
60492;SDS011;46341;51.290;-2.474;2023-04-09T09:09:16;22.45;;;18.52;;
60492;SDS011;46341;51.290;-2.474;2023-04-09T09:11:43;24.67;;;19.10;;
60492;SDS011;46341;51.290;-2.474;2023-04-09T09:16:37;21.45;;;17.00;;
60492;SDS011;46341;51.290;-2.474;2023-04-09T09:21:59;20.77;;;17.42;;
60492;SDS011;46341;51.290;-2.474;2023-04-09T09:24:26;19.40;;;16.80;;
60492;SDS011;46341;51.290;-2.474;2023-04-09T09:26:53;18.73;;;16.67;;
60492;SDS011;46341;51.290;-2.474;2023-04-09T09:29:20;18.63;;;16.40;;
60492;SDS011;46341;51.290;-2.474;2023-04-09T09:31:47;17.63;;;15.73;;
60492;SDS011;46341;51.290;-2.474;2023-04-09T09:34:14;18.98;;;15.55;;
60492;SDS011;46341;51.290;-2.474;2023-04-09T09:36:42;17.67;;;15.77;;
60492;SDS011;46341;51.290;-2.474;2023-04-09T09:39:09;17.52;;;14.80;;
60492;SDS011;46341;51.290;-2.474;2023-04-09T09:41:35;17.08;;;14.57;;
60492;SDS011;46341;51.290;-2.474;2023-04-09T09:44:02;18.42;;;15.20;;
60492;SDS011;46341;51.290;-2.474;2023-04-09T09:46:30;15.93;;;14.15;;
60492;SDS011;46341;51.290;-2.474;2023-04-09T09:48:59;17.95;;;15.38;;
60492;SDS011;46341;51.290;-2.474;2023-04-09T09:51:25;19.90;;;15.73;;
60492;SDS011;46341;51.290;-2.474;2023-04-09T09:53:55;17.13;;;15.43;;
60492;SDS011;46341;51.290;-2.474;2023-04-09T09:56:23;16.65;;;14.95;;
60492;SDS011;46341;51.290;-2.474;2023-04-09T10:01:19;17.92;;;15.40;;
60492;SDS011;46341;51.290;-2.474;2023-04-09T10:03:48;16.65;;;14.68;;
60492;SDS011;46341;51.290;-2.474;2023-04-09T10:08:41;17.38;;;14.07;;
60492;SDS011;46341;51.290;-2.474;2023-04-09T10:11:07;14.55;;;13.05;;
60492;SDS011;46341;51.290;-2.474;2023-04-09T10:13:35;16.15;;;14.45;;
60492;SDS011;46341;51.290;-2.474;2023-04-09T10:16:02;15.35;;;13.68;;
60492;SDS011;46341;51.290;-2.474;2023-04-09T10:18:29;14.38;;;12.98;;
60492;SDS011;46341;51.290;-2.474;2023-04-09T10:25:57;13.68;;;12.45;;
60492;SDS011;46341;51.290;-2.474;2023-04-09T10:28:23;13.63;;;11.55;;
60492;SDS011;46341;51.290;-2.474;2023-04-09T10:30:50;12.68;;;11.48;;
60492;SDS011;46341;51.290;-2.474;2023-04-09T10:33:21;12.93;;;11.65;;
60492;SDS011;46341;51.290;-2.474;2023-04-09T10:35:52;11.07;;;10.00;;
60492;SDS011;46341;51.290;-2.474;2023-04-09T10:40:58;11.27;;;9.80;;
60492;SDS011;46341;51.290;-2.474;2023-04-09T10:43:24;10.70;;;9.68;;
60492;SDS011;46341;51.290;-2.474;2023-04-09T10:45:50;10.13;;;9.13;;
60492;SDS011;46341;51.290;-2.474;2023-04-09T10:48:19;11.23;;;10.07;;
60492;SDS011;46341;51.290;-2.474;2023-04-09T10:50:47;9.48;;;8.57;;
60492;SDS011;46341;51.290;-2.474;2023-04-09T10:53:22;10.07;;;9.07;;
60492;SDS011;46341;51.290;-2.474;2023-04-09T10:55:49;9.68;;;8.77;;
60492;SDS011;46341;51.290;-2.474;2023-04-09T10:58:16;10.00;;;9.07;;
60492;SDS011;46341;51.290;-2.474;2023-04-09T11:00:44;9.65;;;8.60;;
60492;SDS011;46341;51.290;-2.474;2023-04-09T11:06:07;9.20;;;8.25;;
60492;SDS011;46341;51.290;-2.474;2023-04-09T11:08:37;10.48;;;7.97;;
60492;SDS011;46341;51.290;-2.474;2023-04-09T11:11:03;10.35;;;9.38;;
60492;SDS011;46341;51.290;-2.474;2023-04-09T11:13:31;8.80;;;7.47;;
60492;SDS011;46341;51.290;-2.474;2023-04-09T11:18:26;8.40;;;7.60;;
60492;SDS011;46341;51.290;-2.474;2023-04-09T11:20:55;8.43;;;7.65;;
60492;SDS011;46341;51.290;-2.474;2023-04-09T11:23:22;9.02;;;8.23;;
60492;SDS011;46341;51.290;-2.474;2023-04-09T11:25:49;9.20;;;8.30;;
60492;SDS011;46341;51.290;-2.474;2023-04-09T11:28:16;8.70;;;7.90;;
60492;SDS011;46341;51.290;-2.474;2023-04-09T11:38:08;7.22;;;6.53;;
60492;SDS011;46341;51.290;-2.474;2023-04-09T11:40:35;9.70;;;8.70;;
60492;SDS011;46341;51.290;-2.474;2023-04-09T11:43:02;9.40;;;7.93;;
60492;SDS011;46341;51.290;-2.474;2023-04-09T11:45:29;8.20;;;7.40;;
60492;SDS011;46341;51.290;-2.474;2023-04-09T11:47:56;8.68;;;7.88;;
60492;SDS011;46341;51.290;-2.474;2023-04-09T11:50:22;10.48;;;8.52;;
60492;SDS011;46341;51.290;-2.474;2023-04-09T11:52:49;9.02;;;7.95;;
60492;SDS011;46341;51.290;-2.474;2023-04-09T11:55:22;10.73;;;8.38;;
60492;SDS011;46341;51.290;-2.474;2023-04-09T11:57:50;8.35;;;7.53;;
60492;SDS011;46341;51.290;-2.474;2023-04-09T12:00:16;9.88;;;8.13;;
60492;SDS011;46341;51.290;-2.474;2023-04-09T12:02:44;8.70;;;7.88;;
60492;SDS011;46341;51.290;-2.474;2023-04-09T12:05:19;8.75;;;7.78;;
60492;SDS011;46341;51.290;-2.474;2023-04-09T12:07:45;8.52;;;7.72;;
60492;SDS011;46341;51.290;-2.474;2023-04-09T12:10:24;8.30;;;7.40;;
60492;SDS011;46341;51.290;-2.474;2023-04-09T12:12:51;8.77;;;7.57;;
60492;SDS011;46341;51.290;-2.474;2023-04-09T12:20:11;10.40;;;8.80;;
60492;SDS011;46341;51.290;-2.474;2023-04-09T12:22:37;9.05;;;8.10;;
60492;SDS011;46341;51.290;-2.474;2023-04-09T12:25:06;9.25;;;8.20;;
60492;SDS011;46341;51.290;-2.474;2023-04-09T12:27:33;8.25;;;7.55;;
60492;SDS011;46341;51.290;-2.474;2023-04-09T12:29:59;8.55;;;6.90;;
60492;SDS011;46341;51.290;-2.474;2023-04-09T12:32:26;5.30;;;4.80;;
60492;SDS011;46341;51.290;-2.474;2023-04-09T12:34:53;5.68;;;4.60;;
60492;SDS011;46341;51.290;-2.474;2023-04-09T12:37:19;5.88;;;4.88;;
60492;SDS011;46341;51.290;-2.474;2023-04-09T12:39:46;7.25;;;5.00;;
60492;SDS011;46341;51.290;-2.474;2023-04-09T12:42:13;5.20;;;4.70;;
60492;SDS011;46341;51.290;-2.474;2023-04-09T12:44:39;4.60;;;4.20;;
60492;SDS011;46341;51.290;-2.474;2023-04-09T12:47:05;4.55;;;4.15;;
60492;SDS011;46341;51.290;-2.474;2023-04-09T12:49:33;4.72;;;3.85;;
60492;SDS011;46341;51.290;-2.474;2023-04-09T12:51:59;4.53;;;4.00;;
60492;SDS011;46341;51.290;-2.474;2023-04-09T12:54:26;3.92;;;3.50;;
60492;SDS011;46341;51.290;-2.474;2023-04-09T12:56:52;3.95;;;3.65;;
60492;SDS011;46341;51.290;-2.474;2023-04-09T12:59:18;6.30;;;3.85;;
60492;SDS011;46341;51.290;-2.474;2023-04-09T13:01:45;4.38;;;3.33;;
60492;SDS011;46341;51.290;-2.474;2023-04-09T13:04:11;3.45;;;3.15;;
60492;SDS011;46341;51.290;-2.474;2023-04-09T13:06:38;5.45;;;3.75;;
60492;SDS011;46341;51.290;-2.474;2023-04-09T13:09:04;5.28;;;3.95;;
60492;SDS011;46341;51.290;-2.474;2023-04-09T13:11:30;4.72;;;3.38;;
60492;SDS011;46341;51.290;-2.474;2023-04-09T13:13:57;4.13;;;3.20;;
60492;SDS011;46341;51.290;-2.474;2023-04-09T13:16:23;4.85;;;3.60;;
60492;SDS011;46341;51.290;-2.474;2023-04-09T13:18:49;4.30;;;3.90;;
60492;SDS011;46341;51.290;-2.474;2023-04-09T13:21:17;4.65;;;4.25;;
60492;SDS011;46341;51.290;-2.474;2023-04-09T13:23:44;4.57;;;4.15;;
60492;SDS011;46341;51.290;-2.474;2023-04-09T13:26:10;4.75;;;3.50;;
60492;SDS011;46341;51.290;-2.474;2023-04-09T13:28:36;3.93;;;3.60;;
60492;SDS011;46341;51.290;-2.474;2023-04-09T13:31:04;5.13;;;3.50;;
60492;SDS011;46341;51.290;-2.474;2023-04-09T13:35:57;4.43;;;3.47;;
60492;SDS011;46341;51.290;-2.474;2023-04-09T13:38:23;4.10;;;3.80;;
60492;SDS011;46341;51.290;-2.474;2023-04-09T13:40:49;4.07;;;3.63;;
60492;SDS011;46341;51.290;-2.474;2023-04-09T13:43:16;4.10;;;3.70;;
60492;SDS011;46341;51.290;-2.474;2023-04-09T13:45:42;3.60;;;3.30;;
60492;SDS011;46341;51.290;-2.474;2023-04-09T13:48:08;3.58;;;3.28;;
60492;SDS011;46341;51.290;-2.474;2023-04-09T13:50:35;5.28;;;3.42;;
60492;SDS011;46341;51.290;-2.474;2023-04-09T13:53:01;4.75;;;3.25;;
60492;SDS011;46341;51.290;-2.474;2023-04-09T13:55:30;4.22;;;3.60;;
60492;SDS011;46341;51.290;-2.474;2023-04-09T13:57:56;4.40;;;3.40;;
60492;SDS011;46341;51.290;-2.474;2023-04-09T14:00:23;5.75;;;3.70;;
60492;SDS011;46341;51.290;-2.474;2023-04-09T14:02:49;4.95;;;3.95;;
60492;SDS011;46341;51.290;-2.474;2023-04-09T14:05:16;4.55;;;3.83;;
60492;SDS011;46341;51.290;-2.474;2023-04-09T14:07:42;3.93;;;3.43;;
60492;SDS011;46341;51.290;-2.474;2023-04-09T14:10:09;4.57;;;4.00;;
60492;SDS011;46341;51.290;-2.474;2023-04-09T14:12:35;4.53;;;3.88;;
60492;SDS011;46341;51.290;-2.474;2023-04-09T14:15:02;4.95;;;4.45;;
60492;SDS011;46341;51.290;-2.474;2023-04-09T14:17:28;4.55;;;3.83;;
60492;SDS011;46341;51.290;-2.474;2023-04-09T14:19:55;4.72;;;4.15;;
60492;SDS011;46341;51.290;-2.474;2023-04-09T14:22:25;5.82;;;4.00;;
60492;SDS011;46341;51.290;-2.474;2023-04-09T14:27:17;4.80;;;3.78;;
60492;SDS011;46341;51.290;-2.474;2023-04-09T14:29:44;4.65;;;4.13;;
60492;SDS011;46341;51.290;-2.474;2023-04-09T14:32:10;5.30;;;4.50;;
60492;SDS011;46341;51.290;-2.474;2023-04-09T14:34:36;5.35;;;4.85;;
60492;SDS011;46341;51.290;-2.474;2023-04-09T14:37:03;4.82;;;4.05;;
60492;SDS011;46341;51.290;-2.474;2023-04-09T14:39:29;5.15;;;4.10;;
60492;SDS011;46341;51.290;-2.474;2023-04-09T14:41:56;5.07;;;4.07;;
60492;SDS011;46341;51.290;-2.474;2023-04-09T14:44:22;6.40;;;3.80;;
60492;SDS011;46341;51.290;-2.474;2023-04-09T14:46:50;4.78;;;4.28;;
60492;SDS011;46341;51.290;-2.474;2023-04-09T14:49:20;5.03;;;4.30;;
60492;SDS011;46341;51.290;-2.474;2023-04-09T14:51:46;4.82;;;4.32;;
60492;SDS011;46341;51.290;-2.474;2023-04-09T14:54:13;5.43;;;3.70;;
60492;SDS011;46341;51.290;-2.474;2023-04-09T14:56:39;6.68;;;4.18;;
60492;SDS011;46341;51.290;-2.474;2023-04-09T14:59:05;5.70;;;4.50;;
60492;SDS011;46341;51.290;-2.474;2023-04-09T15:01:32;6.63;;;4.00;;
60492;SDS011;46341;51.290;-2.474;2023-04-09T15:03:58;4.32;;;3.90;;
60492;SDS011;46341;51.290;-2.474;2023-04-09T15:06:25;5.30;;;4.30;;
60492;SDS011;46341;51.290;-2.474;2023-04-09T15:08:53;5.57;;;3.85;;
60492;SDS011;46341;51.290;-2.474;2023-04-09T15:11:19;4.87;;;4.20;;